sensor_id;sensor_type;location;lat;lon;timestamp;temperature;humidity
27559;DHT22;15002;52.028;5.670;2023-06-24T00:00:09;22.20;99.90
27559;DHT22;15002;52.028;5.670;2023-06-24T00:02:37;22.10;99.90
27559;DHT22;15002;52.028;5.670;2023-06-24T00:05:04;22.10;99.90
27559;DHT22;15002;52.028;5.670;2023-06-24T00:07:30;22.00;99.90
27559;DHT22;15002;52.028;5.670;2023-06-24T00:09:56;22.10;99.90
27559;DHT22;15002;52.028;5.670;2023-06-24T00:12:22;22.10;99.90
27559;DHT22;15002;52.028;5.670;2023-06-24T00:14:48;22.20;99.90
27559;DHT22;15002;52.028;5.670;2023-06-24T00:17:14;22.20;99.90
27559;DHT22;15002;52.028;5.670;2023-06-24T00:19:41;22.10;99.90
27559;DHT22;15002;52.028;5.670;2023-06-24T00:22:09;22.10;99.90
27559;DHT22;15002;52.028;5.670;2023-06-24T00:24:35;22.00;99.90
27559;DHT22;15002;52.028;5.670;2023-06-24T00:27:00;21.90;99.90
27559;DHT22;15002;52.028;5.670;2023-06-24T00:29:26;21.90;99.90
27559;DHT22;15002;52.028;5.670;2023-06-24T00:31:52;21.90;99.90
27559;DHT22;15002;52.028;5.670;2023-06-24T00:34:17;21.90;99.90
27559;DHT22;15002;52.028;5.670;2023-06-24T00:36:45;21.90;99.90
27559;DHT22;15002;52.028;5.670;2023-06-24T00:39:12;21.90;99.90
27559;DHT22;15002;52.028;5.670;2023-06-24T00:41:38;21.90;99.90
27559;DHT22;15002;52.028;5.670;2023-06-24T00:44:03;21.90;99.90
27559;DHT22;15002;52.028;5.670;2023-06-24T00:46:29;21.90;99.90
27559;DHT22;15002;52.028;5.670;2023-06-24T00:48:58;22.00;99.90
27559;DHT22;15002;52.028;5.670;2023-06-24T00:51:26;22.10;99.90
27559;DHT22;15002;52.028;5.670;2023-06-24T00:53:55;22.10;99.90
27559;DHT22;15002;52.028;5.670;2023-06-24T00:56:28;22.10;99.90
27559;DHT22;15002;52.028;5.670;2023-06-24T00:58:54;22.00;99.90
27559;DHT22;15002;52.028;5.670;2023-06-24T01:01:21;22.00;99.90
27559;DHT22;15002;52.028;5.670;2023-06-24T01:03:49;21.80;99.90
27559;DHT22;15002;52.028;5.670;2023-06-24T01:06:15;21.70;99.90
27559;DHT22;15002;52.028;5.670;2023-06-24T01:08:41;21.80;99.90
27559;DHT22;15002;52.028;5.670;2023-06-24T01:11:06;21.90;99.90
27559;DHT22;15002;52.028;5.670;2023-06-24T01:13:32;21.90;99.90
27559;DHT22;15002;52.028;5.670;2023-06-24T01:16:06;22.00;99.90
27559;DHT22;15002;52.028;5.670;2023-06-24T01:18:43;22.00;99.90
27559;DHT22;15002;52.028;5.670;2023-06-24T01:21:51;22.00;99.90
27559;DHT22;15002;52.028;5.670;2023-06-24T01:24:49;22.00;99.90
27559;DHT22;15002;52.028;5.670;2023-06-24T01:27:50;21.90;99.90
27559;DHT22;15002;52.028;5.670;2023-06-24T01:33:10;21.90;99.90
27559;DHT22;15002;52.028;5.670;2023-06-24T01:35:38;21.70;99.90
27559;DHT22;15002;52.028;5.670;2023-06-24T01:38:09;21.80;99.90
27559;DHT22;15002;52.028;5.670;2023-06-24T01:40:43;21.70;99.90
27559;DHT22;15002;52.028;5.670;2023-06-24T01:43:10;21.60;99.90
27559;DHT22;15002;52.028;5.670;2023-06-24T01:45:49;21.60;99.90
27559;DHT22;15002;52.028;5.670;2023-06-24T01:48:19;21.50;99.90
27559;DHT22;15002;52.028;5.670;2023-06-24T01:51:00;21.50;99.90
27559;DHT22;15002;52.028;5.670;2023-06-24T01:53:34;21.80;99.90
27559;DHT22;15002;52.028;5.670;2023-06-24T01:56:00;21.70;99.90
27559;DHT22;15002;52.028;5.670;2023-06-24T01:58:27;21.80;99.90
27559;DHT22;15002;52.028;5.670;2023-06-24T02:00:54;21.70;99.90
27559;DHT22;15002;52.028;5.670;2023-06-24T02:03:21;21.50;99.90
27559;DHT22;15002;52.028;5.670;2023-06-24T02:05:48;21.30;99.90
27559;DHT22;15002;52.028;5.670;2023-06-24T02:08:16;21.30;99.90
27559;DHT22;15002;52.028;5.670;2023-06-24T02:10:42;21.20;99.90
27559;DHT22;15002;52.028;5.670;2023-06-24T02:13:10;21.10;99.90
27559;DHT22;15002;52.028;5.670;2023-06-24T02:15:38;21.00;99.90
27559;DHT22;15002;52.028;5.670;2023-06-24T02:18:05;21.00;99.90
27559;DHT22;15002;52.028;5.670;2023-06-24T02:20:32;21.10;99.90
27559;DHT22;15002;52.028;5.670;2023-06-24T02:22:59;21.10;99.90
27559;DHT22;15002;52.028;5.670;2023-06-24T02:25:26;21.10;99.90
27559;DHT22;15002;52.028;5.670;2023-06-24T02:27:55;20.90;99.90
27559;DHT22;15002;52.028;5.670;2023-06-24T02:30:22;20.90;99.90
27559;DHT22;15002;52.028;5.670;2023-06-24T02:32:48;20.80;99.90
27559;DHT22;15002;52.028;5.670;2023-06-24T02:35:14;20.80;99.90
27559;DHT22;15002;52.028;5.670;2023-06-24T02:37:40;20.80;99.90
27559;DHT22;15002;52.028;5.670;2023-06-24T02:40:07;20.80;99.90
27559;DHT22;15002;52.028;5.670;2023-06-24T02:42:33;20.80;99.90
27559;DHT22;15002;52.028;5.670;2023-06-24T02:44:59;20.70;99.90
27559;DHT22;15002;52.028;5.670;2023-06-24T02:47:25;20.80;99.90
27559;DHT22;15002;52.028;5.670;2023-06-24T02:49:52;20.80;99.90
27559;DHT22;15002;52.028;5.670;2023-06-24T02:52:19;20.80;99.90
27559;DHT22;15002;52.028;5.670;2023-06-24T02:54:45;20.70;99.90
27559;DHT22;15002;52.028;5.670;2023-06-24T02:57:11;20.70;99.90
27559;DHT22;15002;52.028;5.670;2023-06-24T02:59:39;20.80;99.90
27559;DHT22;15002;52.028;5.670;2023-06-24T03:02:05;20.70;99.90
27559;DHT22;15002;52.028;5.670;2023-06-24T03:04:31;20.80;99.90
27559;DHT22;15002;52.028;5.670;2023-06-24T03:06:57;20.70;99.90
27559;DHT22;15002;52.028;5.670;2023-06-24T03:09:26;20.70;99.90
27559;DHT22;15002;52.028;5.670;2023-06-24T03:11:52;20.80;99.90
27559;DHT22;15002;52.028;5.670;2023-06-24T03:14:18;20.70;99.90
27559;DHT22;15002;52.028;5.670;2023-06-24T03:16:44;20.70;99.90
27559;DHT22;15002;52.028;5.670;2023-06-24T03:19:10;20.70;99.90
27559;DHT22;15002;52.028;5.670;2023-06-24T03:21:35;20.60;99.90
27559;DHT22;15002;52.028;5.670;2023-06-24T03:24:01;20.60;99.90
27559;DHT22;15002;52.028;5.670;2023-06-24T03:26:35;20.60;99.90
27559;DHT22;15002;52.028;5.670;2023-06-24T03:29:01;20.60;99.90
27559;DHT22;15002;52.028;5.670;2023-06-24T03:31:26;20.50;99.90
27559;DHT22;15002;52.028;5.670;2023-06-24T03:33:52;20.40;99.90
27559;DHT22;15002;52.028;5.670;2023-06-24T03:36:18;20.40;99.90
27559;DHT22;15002;52.028;5.670;2023-06-24T03:38:43;20.50;99.90
27559;DHT22;15002;52.028;5.670;2023-06-24T03:41:09;20.60;99.90
27559;DHT22;15002;52.028;5.670;2023-06-24T03:43:35;20.50;99.90
27559;DHT22;15002;52.028;5.670;2023-06-24T03:46:00;20.50;99.90
27559;DHT22;15002;52.028;5.670;2023-06-24T03:48:27;20.50;99.90
27559;DHT22;15002;52.028;5.670;2023-06-24T03:50:53;20.40;99.90
27559;DHT22;15002;52.028;5.670;2023-06-24T03:53:19;20.40;99.90
27559;DHT22;15002;52.028;5.670;2023-06-24T03:55:45;20.60;99.90
27559;DHT22;15002;52.028;5.670;2023-06-24T03:58:10;20.70;99.90
27559;DHT22;15002;52.028;5.670;2023-06-24T04:00:36;20.60;99.90
27559;DHT22;15002;52.028;5.670;2023-06-24T04:03:06;20.60;99.90
27559;DHT22;15002;52.028;5.670;2023-06-24T04:05:33;20.70;99.90
27559;DHT22;15002;52.028;5.670;2023-06-24T04:07:59;20.80;99.90
27559;DHT22;15002;52.028;5.670;2023-06-24T04:10:25;20.80;99.90
27559;DHT22;15002;52.028;5.670;2023-06-24T04:12:50;20.70;99.90
27559;DHT22;15002;52.028;5.670;2023-06-24T04:15:16;20.90;99.90
27559;DHT22;15002;52.028;5.670;2023-06-24T04:17:42;20.90;99.90
27559;DHT22;15002;52.028;5.670;2023-06-24T04:20:08;20.80;99.90
27559;DHT22;15002;52.028;5.670;2023-06-24T04:22:35;20.80;99.90
27559;DHT22;15002;52.028;5.670;2023-06-24T04:25:01;20.80;99.90
27559;DHT22;15002;52.028;5.670;2023-06-24T04:27:27;21.00;99.90
27559;DHT22;15002;52.028;5.670;2023-06-24T04:29:52;21.40;99.90
27559;DHT22;15002;52.028;5.670;2023-06-24T04:32:18;21.70;99.90
27559;DHT22;15002;52.028;5.670;2023-06-24T04:34:43;22.10;99.90
27559;DHT22;15002;52.028;5.670;2023-06-24T04:37:09;22.60;99.90
27559;DHT22;15002;52.028;5.670;2023-06-24T04:39:35;22.90;99.90
27559;DHT22;15002;52.028;5.670;2023-06-24T04:42:00;23.10;99.90
27559;DHT22;15002;52.028;5.670;2023-06-24T04:44:26;23.40;99.90
27559;DHT22;15002;52.028;5.670;2023-06-24T04:46:52;23.60;99.90
27559;DHT22;15002;52.028;5.670;2023-06-24T04:49:18;23.40;99.90
27559;DHT22;15002;52.028;5.670;2023-06-24T04:51:43;23.50;99.90
27559;DHT22;15002;52.028;5.670;2023-06-24T04:54:09;23.30;99.90
27559;DHT22;15002;52.028;5.670;2023-06-24T04:56:38;23.20;99.90
27559;DHT22;15002;52.028;5.670;2023-06-24T04:59:03;23.10;99.90
27559;DHT22;15002;52.028;5.670;2023-06-24T05:01:29;23.10;99.90
27559;DHT22;15002;52.028;5.670;2023-06-24T05:03:54;23.30;99.90
27559;DHT22;15002;52.028;5.670;2023-06-24T05:06:20;23.50;99.90
27559;DHT22;15002;52.028;5.670;2023-06-24T05:08:45;23.50;99.90
27559;DHT22;15002;52.028;5.670;2023-06-24T05:11:11;23.50;99.90
27559;DHT22;15002;52.028;5.670;2023-06-24T05:13:37;23.40;99.90
27559;DHT22;15002;52.028;5.670;2023-06-24T05:16:03;23.40;99.90
27559;DHT22;15002;52.028;5.670;2023-06-24T05:18:28;23.40;99.90
27559;DHT22;15002;52.028;5.670;2023-06-24T05:20:54;23.40;99.90
27559;DHT22;15002;52.028;5.670;2023-06-24T05:23:20;23.50;99.90
27559;DHT22;15002;52.028;5.670;2023-06-24T05:25:45;23.50;99.90
27559;DHT22;15002;52.028;5.670;2023-06-24T05:28:11;23.60;99.90
27559;DHT22;15002;52.028;5.670;2023-06-24T05:30:37;23.60;99.90
27559;DHT22;15002;52.028;5.670;2023-06-24T05:33:03;23.60;99.90
27559;DHT22;15002;52.028;5.670;2023-06-24T05:35:28;23.80;99.90
27559;DHT22;15002;52.028;5.670;2023-06-24T05:37:54;23.80;99.90
27559;DHT22;15002;52.028;5.670;2023-06-24T05:40:20;23.80;99.90
27559;DHT22;15002;52.028;5.670;2023-06-24T05:42:45;24.00;99.90
27559;DHT22;15002;52.028;5.670;2023-06-24T05:45:11;23.90;99.90
27559;DHT22;15002;52.028;5.670;2023-06-24T05:47:37;24.00;99.90
27559;DHT22;15002;52.028;5.670;2023-06-24T05:50:04;23.90;99.70
27559;DHT22;15002;52.028;5.670;2023-06-24T05:52:29;23.90;99.60
27559;DHT22;15002;52.028;5.670;2023-06-24T05:54:55;24.00;99.90
27559;DHT22;15002;52.028;5.670;2023-06-24T05:57:21;24.00;99.80
27559;DHT22;15002;52.028;5.670;2023-06-24T05:59:46;24.10;99.80
27559;DHT22;15002;52.028;5.670;2023-06-24T06:02:12;24.20;99.90
27559;DHT22;15002;52.028;5.670;2023-06-24T06:04:38;24.20;99.70
27559;DHT22;15002;52.028;5.670;2023-06-24T06:07:04;24.20;99.90
27559;DHT22;15002;52.028;5.670;2023-06-24T06:09:30;24.30;99.70
27559;DHT22;15002;52.028;5.670;2023-06-24T06:11:55;24.30;99.70
27559;DHT22;15002;52.028;5.670;2023-06-24T06:14:21;24.30;99.80
27559;DHT22;15002;52.028;5.670;2023-06-24T06:16:47;24.40;99.50
27559;DHT22;15002;52.028;5.670;2023-06-24T06:19:12;24.50;99.50
27559;DHT22;15002;52.028;5.670;2023-06-24T06:21:38;24.50;99.90
27559;DHT22;15002;52.028;5.670;2023-06-24T06:24:04;24.50;99.70
27559;DHT22;15002;52.028;5.670;2023-06-24T06:26:30;24.50;99.30
27559;DHT22;15002;52.028;5.670;2023-06-24T06:28:55;24.90;98.80
27559;DHT22;15002;52.028;5.670;2023-06-24T06:31:21;25.00;98.40
27559;DHT22;15002;52.028;5.670;2023-06-24T06:33:48;25.20;98.20
27559;DHT22;15002;52.028;5.670;2023-06-24T06:36:13;25.60;97.20
27559;DHT22;15002;52.028;5.670;2023-06-24T06:38:40;25.90;96.60
27559;DHT22;15002;52.028;5.670;2023-06-24T06:41:06;26.60;95.30
27559;DHT22;15002;52.028;5.670;2023-06-24T06:43:33;27.20;93.10
27559;DHT22;15002;52.028;5.670;2023-06-24T06:45:59;27.50;92.30
27559;DHT22;15002;52.028;5.670;2023-06-24T06:48:24;27.80;91.50
27559;DHT22;15002;52.028;5.670;2023-06-24T06:50:50;28.60;90.20
27559;DHT22;15002;52.028;5.670;2023-06-24T06:53:17;29.10;87.30
27559;DHT22;15002;52.028;5.670;2023-06-24T06:55:43;29.40;84.70
27559;DHT22;15002;52.028;5.670;2023-06-24T06:58:09;29.70;84.10
27559;DHT22;15002;52.028;5.670;2023-06-24T07:00:35;30.30;81.80
27559;DHT22;15002;52.028;5.670;2023-06-24T07:03:00;30.40;78.50
27559;DHT22;15002;52.028;5.670;2023-06-24T07:05:26;30.60;78.20
27559;DHT22;15002;52.028;5.670;2023-06-24T07:07:51;31.30;76.80
27559;DHT22;15002;52.028;5.670;2023-06-24T07:10:19;31.00;77.40
27559;DHT22;15002;52.028;5.670;2023-06-24T07:12:45;31.00;76.90
27559;DHT22;15002;52.028;5.670;2023-06-24T07:15:11;32.20;75.70
27559;DHT22;15002;52.028;5.670;2023-06-24T07:17:37;33.00;72.00
27559;DHT22;15002;52.028;5.670;2023-06-24T07:20:02;32.80;69.50
27559;DHT22;15002;52.028;5.670;2023-06-24T07:22:28;33.10;70.60
27559;DHT22;15002;52.028;5.670;2023-06-24T07:24:56;33.30;68.90
27559;DHT22;15002;52.028;5.670;2023-06-24T07:27:22;33.20;68.90
27559;DHT22;15002;52.028;5.670;2023-06-24T07:29:47;33.40;68.10
27559;DHT22;15002;52.028;5.670;2023-06-24T07:32:13;33.60;66.10
27559;DHT22;15002;52.028;5.670;2023-06-24T07:34:39;33.90;64.70
27559;DHT22;15002;52.028;5.670;2023-06-24T07:37:04;33.80;64.80
27559;DHT22;15002;52.028;5.670;2023-06-24T07:39:30;33.90;64.60
27559;DHT22;15002;52.028;5.670;2023-06-24T07:41:56;33.90;64.60
27559;DHT22;15002;52.028;5.670;2023-06-24T07:44:21;34.70;63.20
27559;DHT22;15002;52.028;5.670;2023-06-24T07:46:47;35.40;59.50
27559;DHT22;15002;52.028;5.670;2023-06-24T07:49:13;35.50;59.40
27559;DHT22;15002;52.028;5.670;2023-06-24T07:51:39;36.00;58.90
27559;DHT22;15002;52.028;5.670;2023-06-24T07:54:05;35.60;59.90
27559;DHT22;15002;52.028;5.670;2023-06-24T07:56:30;35.10;59.70
27559;DHT22;15002;52.028;5.670;2023-06-24T07:58:56;35.00;62.00
27559;DHT22;15002;52.028;5.670;2023-06-24T08:01:22;35.30;60.30
27559;DHT22;15002;52.028;5.670;2023-06-24T08:03:47;35.90;58.70
27559;DHT22;15002;52.028;5.670;2023-06-24T08:06:13;35.70;58.70
27559;DHT22;15002;52.028;5.670;2023-06-24T08:08:39;35.20;58.50
27559;DHT22;15002;52.028;5.670;2023-06-24T08:11:04;34.80;58.50
27559;DHT22;15002;52.028;5.670;2023-06-24T08:13:30;34.50;61.10
27559;DHT22;15002;52.028;5.670;2023-06-24T08:15:56;34.30;60.30
27559;DHT22;15002;52.028;5.670;2023-06-24T08:18:22;34.20;61.60
27559;DHT22;15002;52.028;5.670;2023-06-24T08:20:48;34.90;57.70
27559;DHT22;15002;52.028;5.670;2023-06-24T08:23:13;34.80;59.00
27559;DHT22;15002;52.028;5.670;2023-06-24T08:25:39;35.00;58.10
27559;DHT22;15002;52.028;5.670;2023-06-24T08:28:05;34.30;60.50
27559;DHT22;15002;52.028;5.670;2023-06-24T08:30:30;34.40;61.50
27559;DHT22;15002;52.028;5.670;2023-06-24T08:32:56;34.50;59.80
27559;DHT22;15002;52.028;5.670;2023-06-24T08:35:22;34.80;59.10
27559;DHT22;15002;52.028;5.670;2023-06-24T08:37:47;34.40;59.20
27559;DHT22;15002;52.028;5.670;2023-06-24T08:40:13;34.30;60.00
27559;DHT22;15002;52.028;5.670;2023-06-24T08:42:38;34.70;58.50
27559;DHT22;15002;52.028;5.670;2023-06-24T08:45:04;34.40;58.00
27559;DHT22;15002;52.028;5.670;2023-06-24T08:47:30;33.90;59.60
27559;DHT22;15002;52.028;5.670;2023-06-24T08:50:03;34.00;59.40
27559;DHT22;15002;52.028;5.670;2023-06-24T08:52:31;33.40;60.70
27559;DHT22;15002;52.028;5.670;2023-06-24T08:54:59;33.00;62.40
27559;DHT22;15002;52.028;5.670;2023-06-24T08:57:25;32.90;62.90
27559;DHT22;15002;52.028;5.670;2023-06-24T08:59:53;32.90;63.00
27559;DHT22;15002;52.028;5.670;2023-06-24T09:02:19;32.90;63.20
27559;DHT22;15002;52.028;5.670;2023-06-24T09:04:45;32.70;63.20
27559;DHT22;15002;52.028;5.670;2023-06-24T09:07:10;32.70;63.10
27559;DHT22;15002;52.028;5.670;2023-06-24T09:09:44;32.70;62.70
27559;DHT22;15002;52.028;5.670;2023-06-24T09:12:14;32.40;62.80
27559;DHT22;15002;52.028;5.670;2023-06-24T09:14:40;32.40;63.50
27559;DHT22;15002;52.028;5.670;2023-06-24T09:17:06;32.60;63.00
27559;DHT22;15002;52.028;5.670;2023-06-24T09:19:34;32.80;63.00
27559;DHT22;15002;52.028;5.670;2023-06-24T09:22:06;32.60;63.50
27559;DHT22;15002;52.028;5.670;2023-06-24T09:24:36;32.30;61.90
27559;DHT22;15002;52.028;5.670;2023-06-24T09:27:03;32.00;63.60
27559;DHT22;15002;52.028;5.670;2023-06-24T09:29:32;32.30;62.90
27559;DHT22;15002;52.028;5.670;2023-06-24T09:31:58;31.80;64.20
27559;DHT22;15002;52.028;5.670;2023-06-24T09:34:26;31.50;64.50
27559;DHT22;15002;52.028;5.670;2023-06-24T09:36:53;31.60;66.10
27559;DHT22;15002;52.028;5.670;2023-06-24T09:39:20;31.70;65.20
27559;DHT22;15002;52.028;5.670;2023-06-24T09:41:54;31.80;66.00
27559;DHT22;15002;52.028;5.670;2023-06-24T09:44:20;32.00;67.30
27559;DHT22;15002;52.028;5.670;2023-06-24T09:46:46;32.00;66.70
27559;DHT22;15002;52.028;5.670;2023-06-24T09:49:12;31.90;68.10
27559;DHT22;15002;52.028;5.670;2023-06-24T09:51:39;32.00;68.10
27559;DHT22;15002;52.028;5.670;2023-06-24T09:54:08;31.60;68.30
27559;DHT22;15002;52.028;5.670;2023-06-24T09:56:36;31.50;67.50
27559;DHT22;15002;52.028;5.670;2023-06-24T09:59:05;31.70;65.70
27559;DHT22;15002;52.028;5.670;2023-06-24T10:01:38;31.70;63.70
27559;DHT22;15002;52.028;5.670;2023-06-24T10:04:05;31.40;65.30
27559;DHT22;15002;52.028;5.670;2023-06-24T10:06:34;31.70;64.70
27559;DHT22;15002;52.028;5.670;2023-06-24T10:09:01;31.90;65.80
27559;DHT22;15002;52.028;5.670;2023-06-24T10:11:27;32.00;66.80
27559;DHT22;15002;52.028;5.670;2023-06-24T10:13:53;31.80;65.30
27559;DHT22;15002;52.028;5.670;2023-06-24T10:16:20;31.70;66.50
27559;DHT22;15002;52.028;5.670;2023-06-24T10:18:46;31.60;67.20
27559;DHT22;15002;52.028;5.670;2023-06-24T10:21:14;31.60;67.60
27559;DHT22;15002;52.028;5.670;2023-06-24T10:23:52;31.40;68.60
27559;DHT22;15002;52.028;5.670;2023-06-24T10:26:29;31.60;68.60
27559;DHT22;15002;52.028;5.670;2023-06-24T10:44:55;31.00;70.90
27559;DHT22;15002;52.028;5.670;2023-06-24T10:47:22;31.00;71.60
27559;DHT22;15002;52.028;5.670;2023-06-24T10:49:48;31.00;70.30
27559;DHT22;15002;52.028;5.670;2023-06-24T10:52:14;31.00;71.30
27559;DHT22;15002;52.028;5.670;2023-06-24T10:54:40;31.00;71.40
27559;DHT22;15002;52.028;5.670;2023-06-24T10:57:07;31.00;71.50
27559;DHT22;15002;52.028;5.670;2023-06-24T10:59:40;30.90;71.40
27559;DHT22;15002;52.028;5.670;2023-06-24T11:02:08;31.00;71.00
27559;DHT22;15002;52.028;5.670;2023-06-24T11:04:45;31.10;71.20
27559;DHT22;15002;52.028;5.670;2023-06-24T11:07:11;31.00;72.20
27559;DHT22;15002;52.028;5.670;2023-06-24T11:09:36;31.00;71.40
27559;DHT22;15002;52.028;5.670;2023-06-24T11:12:03;31.00;70.90
27559;DHT22;15002;52.028;5.670;2023-06-24T11:14:29;31.20;71.20
27559;DHT22;15002;52.028;5.670;2023-06-24T11:16:54;31.30;70.60
27559;DHT22;15002;52.028;5.670;2023-06-24T11:19:20;31.50;69.70
27559;DHT22;15002;52.028;5.670;2023-06-24T11:21:46;31.40;70.50
27559;DHT22;15002;52.028;5.670;2023-06-24T11:24:11;31.20;71.10
27559;DHT22;15002;52.028;5.670;2023-06-24T11:26:38;30.90;71.60
27559;DHT22;15002;52.028;5.670;2023-06-24T11:29:12;30.90;72.60
27559;DHT22;15002;52.028;5.670;2023-06-24T11:31:38;30.90;72.40
27559;DHT22;15002;52.028;5.670;2023-06-24T11:34:04;30.90;72.10
27559;DHT22;15002;52.028;5.670;2023-06-24T11:36:31;31.00;71.80
27559;DHT22;15002;52.028;5.670;2023-06-24T11:38:57;31.10;71.10
27559;DHT22;15002;52.028;5.670;2023-06-24T11:41:22;31.20;72.70
27559;DHT22;15002;52.028;5.670;2023-06-24T11:43:51;31.30;71.40
27559;DHT22;15002;52.028;5.670;2023-06-24T11:46:29;31.00;72.10
27559;DHT22;15002;52.028;5.670;2023-06-24T11:49:07;31.30;71.80
27559;DHT22;15002;52.028;5.670;2023-06-24T11:51:34;31.50;71.00
27559;DHT22;15002;52.028;5.670;2023-06-24T11:54:04;31.80;70.90
27559;DHT22;15002;52.028;5.670;2023-06-24T11:56:40;31.70;70.90
27559;DHT22;15002;52.028;5.670;2023-06-24T11:59:06;31.60;70.90
27559;DHT22;15002;52.028;5.670;2023-06-24T12:01:33;31.60;71.10
27559;DHT22;15002;52.028;5.670;2023-06-24T12:04:19;30.80;70.40
27559;DHT22;15002;52.028;5.670;2023-06-24T12:06:45;30.80;71.70
27559;DHT22;15002;52.028;5.670;2023-06-24T12:09:11;30.90;72.50
27559;DHT22;15002;52.028;5.670;2023-06-24T12:11:37;31.00;72.10
27559;DHT22;15002;52.028;5.670;2023-06-24T12:14:03;31.20;71.80
27559;DHT22;15002;52.028;5.670;2023-06-24T12:16:29;31.50;71.60
27559;DHT22;15002;52.028;5.670;2023-06-24T12:18:55;31.90;70.90
27559;DHT22;15002;52.028;5.670;2023-06-24T12:21:21;31.90;69.30
27559;DHT22;15002;52.028;5.670;2023-06-24T12:23:47;31.50;70.30
27559;DHT22;15002;52.028;5.670;2023-06-24T12:26:13;31.70;70.00
27559;DHT22;15002;52.028;5.670;2023-06-24T12:28:38;31.90;70.60
27559;DHT22;15002;52.028;5.670;2023-06-24T12:31:04;31.80;71.50
27559;DHT22;15002;52.028;5.670;2023-06-24T12:33:30;31.80;71.60
27559;DHT22;15002;52.028;5.670;2023-06-24T12:35:56;32.10;70.10
27559;DHT22;15002;52.028;5.670;2023-06-24T12:38:22;31.90;69.40
27559;DHT22;15002;52.028;5.670;2023-06-24T12:40:47;31.90;70.20
27559;DHT22;15002;52.028;5.670;2023-06-24T12:43:14;31.50;70.10
27559;DHT22;15002;52.028;5.670;2023-06-24T12:45:40;31.40;72.00
27559;DHT22;15002;52.028;5.670;2023-06-24T12:48:09;31.40;72.30
27559;DHT22;15002;52.028;5.670;2023-06-24T12:50:35;31.50;72.20
27559;DHT22;15002;52.028;5.670;2023-06-24T12:53:01;31.60;71.60
27559;DHT22;15002;52.028;5.670;2023-06-24T12:55:27;31.70;71.00
27559;DHT22;15002;52.028;5.670;2023-06-24T12:57:53;32.10;69.80
27559;DHT22;15002;52.028;5.670;2023-06-24T13:00:22;32.20;68.80
27559;DHT22;15002;52.028;5.670;2023-06-24T13:02:49;32.10;67.60
27559;DHT22;15002;52.028;5.670;2023-06-24T13:05:15;32.20;67.90
27559;DHT22;15002;52.028;5.670;2023-06-24T13:07:41;32.20;67.10
27559;DHT22;15002;52.028;5.670;2023-06-24T13:10:07;32.10;68.40
27559;DHT22;15002;52.028;5.670;2023-06-24T13:12:33;32.00;68.70
27559;DHT22;15002;52.028;5.670;2023-06-24T13:14:59;32.20;67.90
27559;DHT22;15002;52.028;5.670;2023-06-24T13:17:25;32.00;68.60
27559;DHT22;15002;52.028;5.670;2023-06-24T13:19:51;31.60;71.60
27559;DHT22;15002;52.028;5.670;2023-06-24T13:22:17;31.70;70.50
27559;DHT22;15002;52.028;5.670;2023-06-24T13:24:44;31.60;69.90
27559;DHT22;15002;52.028;5.670;2023-06-24T13:27:10;31.90;70.10
27559;DHT22;15002;52.028;5.670;2023-06-24T13:29:36;31.60;70.30
27559;DHT22;15002;52.028;5.670;2023-06-24T13:32:02;31.60;70.70
27559;DHT22;15002;52.028;5.670;2023-06-24T13:34:28;31.60;70.20
27559;DHT22;15002;52.028;5.670;2023-06-24T13:36:54;31.50;71.10
27559;DHT22;15002;52.028;5.670;2023-06-24T13:39:20;31.60;71.20
27559;DHT22;15002;52.028;5.670;2023-06-24T13:41:49;31.60;70.30
27559;DHT22;15002;52.028;5.670;2023-06-24T13:44:15;31.60;70.40
27559;DHT22;15002;52.028;5.670;2023-06-24T13:46:41;31.60;70.20
27559;DHT22;15002;52.028;5.670;2023-06-24T13:49:07;31.80;69.80
27559;DHT22;15002;52.028;5.670;2023-06-24T13:51:34;31.90;70.10
27559;DHT22;15002;52.028;5.670;2023-06-24T13:53:59;31.90;69.90
27559;DHT22;15002;52.028;5.670;2023-06-24T13:56:26;32.00;69.60
27559;DHT22;15002;52.028;5.670;2023-06-24T13:58:52;31.90;69.60
27559;DHT22;15002;52.028;5.670;2023-06-24T14:01:19;31.80;70.60
27559;DHT22;15002;52.028;5.670;2023-06-24T14:03:44;31.80;69.40
27559;DHT22;15002;52.028;5.670;2023-06-24T14:06:13;31.90;69.50
27559;DHT22;15002;52.028;5.670;2023-06-24T14:08:39;32.00;68.70
27559;DHT22;15002;52.028;5.670;2023-06-24T14:11:05;32.00;69.20
27559;DHT22;15002;52.028;5.670;2023-06-24T14:13:31;31.60;70.20
27559;DHT22;15002;52.028;5.670;2023-06-24T14:15:57;31.50;69.30
27559;DHT22;15002;52.028;5.670;2023-06-24T14:18:23;31.20;70.40
27559;DHT22;15002;52.028;5.670;2023-06-24T14:20:49;31.10;70.60
27559;DHT22;15002;52.028;5.670;2023-06-24T14:23:15;31.40;70.80
27559;DHT22;15002;52.028;5.670;2023-06-24T14:25:41;31.60;69.70
27559;DHT22;15002;52.028;5.670;2023-06-24T14:28:06;31.50;70.60
27559;DHT22;15002;52.028;5.670;2023-06-24T14:30:33;31.40;71.30
27559;DHT22;15002;52.028;5.670;2023-06-24T14:33:00;31.30;71.80
27559;DHT22;15002;52.028;5.670;2023-06-24T14:35:26;31.20;71.60
27559;DHT22;15002;52.028;5.670;2023-06-24T14:37:52;31.20;71.70
27559;DHT22;15002;52.028;5.670;2023-06-24T14:40:18;31.30;72.30
27559;DHT22;15002;52.028;5.670;2023-06-24T14:42:43;31.40;71.90
27559;DHT22;15002;52.028;5.670;2023-06-24T14:45:09;31.20;72.00
27559;DHT22;15002;52.028;5.670;2023-06-24T14:47:35;31.20;71.90
27559;DHT22;15002;52.028;5.670;2023-06-24T14:50:01;31.70;70.60
27559;DHT22;15002;52.028;5.670;2023-06-24T14:52:27;31.40;71.90
27559;DHT22;15002;52.028;5.670;2023-06-24T14:54:53;31.30;72.70
27559;DHT22;15002;52.028;5.670;2023-06-24T14:57:18;31.10;72.90
27559;DHT22;15002;52.028;5.670;2023-06-24T14:59:44;31.20;73.00
27559;DHT22;15002;52.028;5.670;2023-06-24T15:02:09;31.40;72.40
27559;DHT22;15002;52.028;5.670;2023-06-24T15:04:36;31.30;72.80
27559;DHT22;15002;52.028;5.670;2023-06-24T15:07:02;31.40;73.00
27559;DHT22;15002;52.028;5.670;2023-06-24T15:09:27;31.60;72.60
27559;DHT22;15002;52.028;5.670;2023-06-24T15:11:53;31.60;72.30
27559;DHT22;15002;52.028;5.670;2023-06-24T15:14:19;31.50;73.10
27559;DHT22;15002;52.028;5.670;2023-06-24T15:16:44;31.60;71.90
27559;DHT22;15002;52.028;5.670;2023-06-24T15:19:10;31.50;72.70
27559;DHT22;15002;52.028;5.670;2023-06-24T15:21:36;31.50;72.30
27559;DHT22;15002;52.028;5.670;2023-06-24T15:24:01;31.60;72.20
27559;DHT22;15002;52.028;5.670;2023-06-24T15:26:27;31.70;71.50
27559;DHT22;15002;52.028;5.670;2023-06-24T15:28:53;31.50;72.00
27559;DHT22;15002;52.028;5.670;2023-06-24T15:31:19;31.20;72.30
27559;DHT22;15002;52.028;5.670;2023-06-24T15:33:45;31.50;75.50
27559;DHT22;15002;52.028;5.670;2023-06-24T15:36:11;31.50;72.30
27559;DHT22;15002;52.028;5.670;2023-06-24T15:38:37;31.60;71.80
27559;DHT22;15002;52.028;5.670;2023-06-24T15:41:02;31.50;73.80
27559;DHT22;15002;52.028;5.670;2023-06-24T15:43:28;31.50;73.60
27559;DHT22;15002;52.028;5.670;2023-06-24T15:45:54;31.40;73.70